sensor_id;sensor_type;location;lat;lon;timestamp;pressure;altitude;pressure_sealevel;temperature;humidity
8523;BME280;4299;42.202;24.736;2023-02-19T00:01:26;99759.81;;;10.47;57.93
8523;BME280;4299;42.202;24.736;2023-02-19T00:03:54;99764.47;;;10.60;57.04
8523;BME280;4299;42.202;24.736;2023-02-19T00:06:23;99765.84;;;10.67;56.67
8523;BME280;4299;42.202;24.736;2023-02-19T00:08:50;99756.91;;;10.69;56.37
8523;BME280;4299;42.202;24.736;2023-02-19T00:11:20;99745.09;;;10.75;56.03
8523;BME280;4299;42.202;24.736;2023-02-19T00:13:48;99751.19;;;10.77;55.96
8523;BME280;4299;42.202;24.736;2023-02-19T00:16:17;99744.63;;;10.84;55.56
8523;BME280;4299;42.202;24.736;2023-02-19T00:18:44;99737.91;;;10.94;54.85
8523;BME280;4299;42.202;24.736;2023-02-19T00:21:11;99744.41;;;11.04;54.41
8523;BME280;4299;42.202;24.736;2023-02-19T00:23:39;99754.72;;;11.10;54.03
8523;BME280;4299;42.202;24.736;2023-02-19T00:26:07;99736.91;;;11.12;53.45
8523;BME280;4299;42.202;24.736;2023-02-19T00:28:35;99743.34;;;11.40;52.87
8523;BME280;4299;42.202;24.736;2023-02-19T00:31:06;99740.19;;;11.49;52.19
8523;BME280;4299;42.202;24.736;2023-02-19T00:33:33;99734.88;;;11.64;51.39
8523;BME280;4299;42.202;24.736;2023-02-19T00:36:00;99735.38;;;11.71;50.97
8523;BME280;4299;42.202;24.736;2023-02-19T00:38:27;99728.19;;;11.73;50.80
8523;BME280;4299;42.202;24.736;2023-02-19T00:40:54;99718.09;;;11.64;51.07
8523;BME280;4299;42.202;24.736;2023-02-19T00:43:21;99724.25;;;11.49;51.89
8523;BME280;4299;42.202;24.736;2023-02-19T00:45:49;99721.50;;;11.35;52.55
8523;BME280;4299;42.202;24.736;2023-02-19T00:48:15;99724.84;;;11.22;52.68
8523;BME280;4299;42.202;24.736;2023-02-19T00:50:42;99725.44;;;11.27;52.62
8523;BME280;4299;42.202;24.736;2023-02-19T00:53:09;99725.63;;;11.24;52.42
8523;BME280;4299;42.202;24.736;2023-02-19T00:55:36;99725.28;;;11.15;53.04
8523;BME280;4299;42.202;24.736;2023-02-19T00:58:03;99722.03;;;11.10;53.01
8523;BME280;4299;42.202;24.736;2023-02-19T01:00:29;99721.31;;;11.06;53.58
8523;BME280;4299;42.202;24.736;2023-02-19T01:02:59;99710.88;;;11.03;53.74
8523;BME280;4299;42.202;24.736;2023-02-19T01:05:25;99712.56;;;11.04;53.86
8523;BME280;4299;42.202;24.736;2023-02-19T01:07:52;99707.47;;;11.01;54.23
8523;BME280;4299;42.202;24.736;2023-02-19T01:10:19;99704.19;;;10.96;54.36
8523;BME280;4299;42.202;24.736;2023-02-19T01:12:45;99696.09;;;10.82;54.78
8523;BME280;4299;42.202;24.736;2023-02-19T01:15:12;99713.00;;;10.64;55.82
8523;BME280;4299;42.202;24.736;2023-02-19T01:17:39;99701.50;;;10.47;56.84
8523;BME280;4299;42.202;24.736;2023-02-19T01:20:08;99707.97;;;10.25;58.64
8523;BME280;4299;42.202;24.736;2023-02-19T01:22:34;99707.09;;;10.07;60.01
8523;BME280;4299;42.202;24.736;2023-02-19T01:25:01;99709.09;;;10.21;59.15
8523;BME280;4299;42.202;24.736;2023-02-19T01:27:28;99712.19;;;10.29;59.31
8523;BME280;4299;42.202;24.736;2023-02-19T01:29:54;99713.44;;;10.39;58.67
8523;BME280;4299;42.202;24.736;2023-02-19T01:32:21;99710.38;;;10.46;58.07
8523;BME280;4299;42.202;24.736;2023-02-19T01:34:48;99709.03;;;10.55;57.35
8523;BME280;4299;42.202;24.736;2023-02-19T01:37:16;99709.16;;;10.69;56.60
8523;BME280;4299;42.202;24.736;2023-02-19T01:39:45;99710.97;;;10.69;56.11
8523;BME280;4299;42.202;24.736;2023-02-19T01:42:14;99700.34;;;10.69;56.05
8523;BME280;4299;42.202;24.736;2023-02-19T01:45:15;99692.13;;;10.58;56.71
8523;BME280;4299;42.202;24.736;2023-02-19T01:47:45;99693.25;;;10.36;57.16
8523;BME280;4299;42.202;24.736;2023-02-19T01:50:12;99688.81;;;10.37;57.80
8523;BME280;4299;42.202;24.736;2023-02-19T01:52:40;99673.44;;;10.43;57.09
8523;BME280;4299;42.202;24.736;2023-02-19T01:55:10;99682.34;;;10.42;57.20
8523;BME280;4299;42.202;24.736;2023-02-19T01:57:45;99681.09;;;10.32;57.46
8523;BME280;4299;42.202;24.736;2023-02-19T02:00:15;99688.25;;;10.30;58.43
8523;BME280;4299;42.202;24.736;2023-02-19T02:02:49;99698.72;;;10.33;57.79
8523;BME280;4299;42.202;24.736;2023-02-19T02:05:24;99700.28;;;10.37;57.86
8523;BME280;4299;42.202;24.736;2023-02-19T02:07:59;99701.81;;;10.41;57.42
8523;BME280;4299;42.202;24.736;2023-02-19T02:10:54;99699.84;;;10.45;57.02
8523;BME280;4299;42.202;24.736;2023-02-19T02:13:21;99703.06;;;10.51;56.44
8523;BME280;4299;42.202;24.736;2023-02-19T02:15:53;99705.31;;;10.59;56.35
8523;BME280;4299;42.202;24.736;2023-02-19T02:18:33;99698.28;;;10.58;56.41
8523;BME280;4299;42.202;24.736;2023-02-19T02:21:32;99694.16;;;10.52;56.77
8523;BME280;4299;42.202;24.736;2023-02-19T02:24:11;99717.00;;;10.38;57.47
8523;BME280;4299;42.202;24.736;2023-02-19T02:26:53;99711.03;;;10.17;58.54
8523;BME280;4299;42.202;24.736;2023-02-19T02:29:35;99710.50;;;10.09;59.35
8523;BME280;4299;42.202;24.736;2023-02-19T02:32:09;99709.28;;;9.99;60.11
8523;BME280;4299;42.202;24.736;2023-02-19T02:34:40;99700.84;;;9.91;60.92
8523;BME280;4299;42.202;24.736;2023-02-19T02:37:11;99700.06;;;9.89;60.84
8523;BME280;4299;42.202;24.736;2023-02-19T02:39:39;99702.72;;;9.89;61.08
8523;BME280;4299;42.202;24.736;2023-02-19T02:42:06;99711.75;;;9.85;61.50
8523;BME280;4299;42.202;24.736;2023-02-19T02:44:50;99696.19;;;9.79;62.52
8523;BME280;4299;42.202;24.736;2023-02-19T02:47:38;99690.88;;;9.79;63.43
8523;BME280;4299;42.202;24.736;2023-02-19T02:50:10;99700.06;;;9.89;63.13
8523;BME280;4299;42.202;24.736;2023-02-19T02:52:41;99700.69;;;9.94;62.41
8523;BME280;4299;42.202;24.736;2023-02-19T02:55:29;99705.69;;;10.00;62.12
8523;BME280;4299;42.202;24.736;2023-02-19T02:57:56;99712.22;;;10.10;61.62
8523;BME280;4299;42.202;24.736;2023-02-19T03:00:24;99718.81;;;10.20;60.50
8523;BME280;4299;42.202;24.736;2023-02-19T03:03:14;99704.66;;;10.21;60.40
8523;BME280;4299;42.202;24.736;2023-02-19T03:05:42;99714.06;;;10.27;60.02
8523;BME280;4299;42.202;24.736;2023-02-19T03:08:23;99725.06;;;10.36;59.56
8523;BME280;4299;42.202;24.736;2023-02-19T03:10:53;99712.41;;;10.41;59.39
8523;BME280;4299;42.202;24.736;2023-02-19T03:13:25;99719.78;;;10.52;58.80
8523;BME280;4299;42.202;24.736;2023-02-19T03:16:14;99731.56;;;10.46;58.67
8523;BME280;4299;42.202;24.736;2023-02-19T03:19:03;99735.16;;;10.45;58.78
8523;BME280;4299;42.202;24.736;2023-02-19T03:21:49;99731.22;;;10.37;59.08
8523;BME280;4299;42.202;24.736;2023-02-19T03:24:20;99736.28;;;10.41;58.78
8523;BME280;4299;42.202;24.736;2023-02-19T03:27:06;99730.19;;;10.39;58.96
8523;BME280;4299;42.202;24.736;2023-02-19T03:29:36;99723.34;;;10.35;58.99
8523;BME280;4299;42.202;24.736;2023-02-19T03:32:07;99726.06;;;10.34;59.12
8523;BME280;4299;42.202;24.736;2023-02-19T03:34:40;99730.97;;;10.24;59.63
8523;BME280;4299;42.202;24.736;2023-02-19T03:37:10;99738.28;;;10.19;59.89
8523;BME280;4299;42.202;24.736;2023-02-19T03:39:38;99739.16;;;10.20;59.65
8523;BME280;4299;42.202;24.736;2023-02-19T03:42:16;99734.94;;;10.33;59.35
8523;BME280;4299;42.202;24.736;2023-02-19T03:44:55;99724.97;;;10.38;59.11
8523;BME280;4299;42.202;24.736;2023-02-19T03:47:26;99734.88;;;10.51;58.11
8523;BME280;4299;42.202;24.736;2023-02-19T03:49:58;99732.81;;;10.57;57.68
8523;BME280;4299;42.202;24.736;2023-02-19T03:52:36;99741.06;;;10.68;57.19
8523;BME280;4299;42.202;24.736;2023-02-19T03:55:07;99742.78;;;10.69;56.80
8523;BME280;4299;42.202;24.736;2023-02-19T03:57:41;99729.59;;;10.67;56.82
8523;BME280;4299;42.202;24.736;2023-02-19T04:00:15;99747.28;;;10.67;56.78
8523;BME280;4299;42.202;24.736;2023-02-19T04:02:47;99739.34;;;10.67;56.84
8523;BME280;4299;42.202;24.736;2023-02-19T04:05:19;99737.47;;;10.69;56.14
8523;BME280;4299;42.202;24.736;2023-02-19T04:07:49;99746.06;;;10.74;56.10
8523;BME280;4299;42.202;24.736;2023-02-19T04:10:18;99742.16;;;10.81;55.84
8523;BME280;4299;42.202;24.736;2023-02-19T04:12:49;99743.38;;;10.91;55.23
8523;BME280;4299;42.202;24.736;2023-02-19T04:15:21;99747.66;;;10.93;54.77
8523;BME280;4299;42.202;24.736;2023-02-19T04:17:53;99751.78;;;10.99;54.29
8523;BME280;4299;42.202;24.736;2023-02-19T04:20:24;99762.03;;;11.05;53.83
8523;BME280;4299;42.202;24.736;2023-02-19T04:22:54;99770.78;;;11.07;53.30
8523;BME280;4299;42.202;24.736;2023-02-19T04:25:22;99774.38;;;11.06;53.21
8523;BME280;4299;42.202;24.736;2023-02-19T04:27:49;99779.84;;;11.03;53.32
8523;BME280;4299;42.202;24.736;2023-02-19T04:30:16;99779.16;;;11.00;53.41
8523;BME280;4299;42.202;24.736;2023-02-19T04:32:43;99778.28;;;10.99;53.16
8523;BME280;4299;42.202;24.736;2023-02-19T04:35:09;99782.75;;;10.99;53.07
8523;BME280;4299;42.202;24.736;2023-02-19T04:37:38;99794.53;;;10.93;53.20
8523;BME280;4299;42.202;24.736;2023-02-19T04:40:05;99800.50;;;10.81;53.93
8523;BME280;4299;42.202;24.736;2023-02-19T04:42:32;99802.53;;;10.59;54.72
8523;BME280;4299;42.202;24.736;2023-02-19T04:44:58;99809.53;;;10.42;55.88
8523;BME280;4299;42.202;24.736;2023-02-19T04:47:25;99810.31;;;10.27;57.08
8523;BME280;4299;42.202;24.736;2023-02-19T04:49:52;99816.91;;;10.19;57.85
8523;BME280;4299;42.202;24.736;2023-02-19T04:52:19;99814.59;;;10.11;58.59
8523;BME280;4299;42.202;24.736;2023-02-19T04:54:47;99813.91;;;10.07;58.93
8523;BME280;4299;42.202;24.736;2023-02-19T04:57:14;99828.78;;;10.10;59.21
8523;BME280;4299;42.202;24.736;2023-02-19T04:59:41;99831.22;;;10.14;58.57
8523;BME280;4299;42.202;24.736;2023-02-19T05:02:07;99833.66;;;10.19;58.21
8523;BME280;4299;42.202;24.736;2023-02-19T05:04:34;99828.22;;;10.22;57.86
8523;BME280;4299;42.202;24.736;2023-02-19T05:07:01;99832.75;;;10.20;58.15
8523;BME280;4299;42.202;24.736;2023-02-19T05:09:27;99839.25;;;10.13;58.52
8523;BME280;4299;42.202;24.736;2023-02-19T05:11:55;99832.53;;;10.06;59.20
8523;BME280;4299;42.202;24.736;2023-02-19T05:14:22;99833.75;;;9.99;59.62
8523;BME280;4299;42.202;24.736;2023-02-19T05:16:49;99834.38;;;10.04;59.48
8523;BME280;4299;42.202;24.736;2023-02-19T05:19:15;99838.50;;;10.09;59.40
8523;BME280;4299;42.202;24.736;2023-02-19T05:21:42;99840.97;;;10.14;59.06
8523;BME280;4299;42.202;24.736;2023-02-19T05:24:09;99838.97;;;10.19;58.79
8523;BME280;4299;42.202;24.736;2023-02-19T05:26:35;99838.81;;;10.22;58.56
8523;BME280;4299;42.202;24.736;2023-02-19T05:29:04;99842.09;;;10.27;58.61
8523;BME280;4299;42.202;24.736;2023-02-19T05:31:30;99846.97;;;10.18;58.92
8523;BME280;4299;42.202;24.736;2023-02-19T05:33:58;99851.56;;;10.14;59.47
8523;BME280;4299;42.202;24.736;2023-02-19T05:36:25;99856.59;;;10.20;59.41
8523;BME280;4299;42.202;24.736;2023-02-19T05:38:52;99852.84;;;10.24;59.87
8523;BME280;4299;42.202;24.736;2023-02-19T05:41:22;99869.59;;;10.25;59.60
8523;BME280;4299;42.202;24.736;2023-02-19T05:43:50;99854.72;;;10.22;60.33
8523;BME280;4299;42.202;24.736;2023-02-19T05:46:20;99849.13;;;10.28;60.17
8523;BME280;4299;42.202;24.736;2023-02-19T05:48:48;99852.31;;;10.35;59.53
8523;BME280;4299;42.202;24.736;2023-02-19T05:51:16;99848.19;;;10.46;59.39
8523;BME280;4299;42.202;24.736;2023-02-19T05:53:44;99854.91;;;10.53;59.02
8523;BME280;4299;42.202;24.736;2023-02-19T05:56:25;99860.06;;;10.57;58.91
8523;BME280;4299;42.202;24.736;2023-02-19T05:58:54;99871.34;;;10.60;59.22
8523;BME280;4299;42.202;24.736;2023-02-19T06:01:24;99866.59;;;10.67;58.43
8523;BME280;4299;42.202;24.736;2023-02-19T06:03:51;99871.13;;;10.82;57.47
8523;BME280;4299;42.202;24.736;2023-02-19T06:06:19;99880.97;;;10.97;56.91
8523;BME280;4299;42.202;24.736;2023-02-19T06:08:47;99886.88;;;11.19;55.93
8523;BME280;4299;42.202;24.736;2023-02-19T06:11:14;99891.22;;;11.38;54.79
8523;BME280;4299;42.202;24.736;2023-02-19T06:13:41;99895.72;;;11.53;54.01
8523;BME280;4299;42.202;24.736;2023-02-19T06:16:08;99891.81;;;11.60;53.70
8523;BME280;4299;42.202;24.736;2023-02-19T06:18:36;99897.25;;;11.74;53.50
8523;BME280;4299;42.202;24.736;2023-02-19T06:21:06;99900.94;;;11.87;52.53
8523;BME280;4299;42.202;24.736;2023-02-19T06:23:34;99903.03;;;11.98;52.40
8523;BME280;4299;42.202;24.736;2023-02-19T06:26:06;99914.00;;;12.23;51.68
8523;BME280;4299;42.202;24.736;2023-02-19T06:28:33;99900.63;;;12.40;50.75
8523;BME280;4299;42.202;24.736;2023-02-19T06:30:59;99911.25;;;12.56;50.65
8523;BME280;4299;42.202;24.736;2023-02-19T06:33:26;99908.09;;;12.79;49.74
8523;BME280;4299;42.202;24.736;2023-02-19T06:35:57;99911.31;;;13.00;48.79
8523;BME280;4299;42.202;24.736;2023-02-19T06:38:24;99914.91;;;13.15;47.89
8523;BME280;4299;42.202;24.736;2023-02-19T06:40:51;99915.50;;;13.34;47.66
8523;BME280;4299;42.202;24.736;2023-02-19T06:43:18;99914.34;;;13.52;47.32
8523;BME280;4299;42.202;24.736;2023-02-19T06:45:44;99916.00;;;13.69;46.91
8523;BME280;4299;42.202;24.736;2023-02-19T06:48:11;99919.50;;;13.84;46.33
8523;BME280;4299;42.202;24.736;2023-02-19T06:50:38;99911.31;;;14.01;45.99
8523;BME280;4299;42.202;24.736;2023-02-19T06:53:06;99913.19;;;14.13;45.13
8523;BME280;4299;42.202;24.736;2023-02-19T06:55:35;99927.44;;;14.26;45.52
8523;BME280;4299;42.202;24.736;2023-02-19T06:58:02;99919.44;;;14.40;45.15
8523;BME280;4299;42.202;24.736;2023-02-19T07:00:29;99926.09;;;14.48;45.28
8523;BME280;4299;42.202;24.736;2023-02-19T07:02:55;99916.72;;;14.55;44.55
8523;BME280;4299;42.202;24.736;2023-02-19T07:05:22;99920.69;;;14.62;44.67
8523;BME280;4299;42.202;24.736;2023-02-19T07:07:49;99915.72;;;14.70;44.20
8523;BME280;4299;42.202;24.736;2023-02-19T07:10:17;99914.69;;;14.85;43.89
8523;BME280;4299;42.202;24.736;2023-02-19T07:12:44;99922.19;;;14.93;43.39
8523;BME280;4299;42.202;24.736;2023-02-19T07:15:10;99924.59;;;14.97;43.28
8523;BME280;4299;42.202;24.736;2023-02-19T07:17:37;99915.19;;;15.04;43.39
8523;BME280;4299;42.202;24.736;2023-02-19T07:20:04;99923.50;;;15.12;42.97
8523;BME280;4299;42.202;24.736;2023-02-19T07:22:31;99923.13;;;15.18;43.20
8523;BME280;4299;42.202;24.736;2023-02-19T07:24:58;99920.56;;;15.30;43.12
8523;BME280;4299;42.202;24.736;2023-02-19T07:27:26;99928.28;;;15.47;43.01
8523;BME280;4299;42.202;24.736;2023-02-19T07:29:52;99918.69;;;15.57;42.20
8523;BME280;4299;42.202;24.736;2023-02-19T07:32:19;99915.28;;;15.68;42.32
8523;BME280;4299;42.202;24.736;2023-02-19T07:34:46;99908.31;;;15.78;41.49
8523;BME280;4299;42.202;24.736;2023-02-19T07:37:12;99912.03;;;15.88;41.24
8523;BME280;4299;42.202;24.736;2023-02-19T07:39:39;99913.00;;;16.00;41.05
8523;BME280;4299;42.202;24.736;2023-02-19T07:42:06;99907.94;;;16.08;40.85
8523;BME280;4299;42.202;24.736;2023-02-19T07:44:34;99909.44;;;16.12;40.93
8523;BME280;4299;42.202;24.736;2023-02-19T07:47:00;99910.91;;;16.16;41.12
8523;BME280;4299;42.202;24.736;2023-02-19T07:49:27;99911.16;;;16.13;40.87
8523;BME280;4299;42.202;24.736;2023-02-19T07:51:54;99910.91;;;16.16;41.06
8523;BME280;4299;42.202;24.736;2023-02-19T07:54:20;99914.34;;;16.18;40.91
8523;BME280;4299;42.202;24.736;2023-02-19T07:56:47;99920.75;;;16.28;41.41
8523;BME280;4299;42.202;24.736;2023-02-19T07:59:14;99922.88;;;16.23;41.24
8523;BME280;4299;42.202;24.736;2023-02-19T08:01:45;99923.13;;;16.20;41.25
8523;BME280;4299;42.202;24.736;2023-02-19T08:04:28;99928.88;;;16.26;41.44
8523;BME280;4299;42.202;24.736;2023-02-19T08:06:55;99929.50;;;16.30;41.07
8523;BME280;4299;42.202;24.736;2023-02-19T08:09:22;99935.06;;;16.27;41.41
8523;BME280;4299;42.202;24.736;2023-02-19T08:11:48;99928.38;;;16.45;41.10
8523;BME280;4299;42.202;24.736;2023-02-19T08:14:33;99937.16;;;16.47;41.24
8523;BME280;4299;42.202;24.736;2023-02-19T08:17:00;99932.41;;;16.63;41.12
8523;BME280;4299;42.202;24.736;2023-02-19T08:19:27;99929.06;;;16.72;40.93
8523;BME280;4299;42.202;24.736;2023-02-19T08:21:53;99925.94;;;16.79;40.84
8523;BME280;4299;42.202;24.736;2023-02-19T08:24:20;99912.56;;;16.90;40.51
8523;BME280;4299;42.202;24.736;2023-02-19T08:26:47;99910.44;;;16.95;40.38
8523;BME280;4299;42.202;24.736;2023-02-19T08:29:14;99915.91;;;17.04;40.58
8523;BME280;4299;42.202;24.736;2023-02-19T08:31:40;99904.88;;;17.20;40.40
8523;BME280;4299;42.202;24.736;2023-02-19T08:34:08;99903.72;;;17.35;40.13
8523;BME280;4299;42.202;24.736;2023-02-19T08:36:35;99908.84;;;17.38;39.99
8523;BME280;4299;42.202;24.736;2023-02-19T08:39:02;99899.09;;;17.48;40.16
8523;BME280;4299;42.202;24.736;2023-02-19T08:41:28;99905.78;;;17.54;39.47
8523;BME280;4299;42.202;24.736;2023-02-19T08:43:55;99890.56;;;17.43;39.37
8523;BME280;4299;42.202;24.736;2023-02-19T08:46:22;99889.88;;;17.64;39.48
8523;BME280;4299;42.202;24.736;2023-02-19T08:48:48;99885.25;;;17.77;39.43
8523;BME280;4299;42.202;24.736;2023-02-19T08:51:16;99881.59;;;17.78;39.16
8523;BME280;4299;42.202;24.736;2023-02-19T08:53:44;99877.94;;;17.90;39.60
8523;BME280;4299;42.202;24.736;2023-02-19T08:56:13;99890.13;;;18.16;39.45
8523;BME280;4299;42.202;24.736;2023-02-19T08:58:40;99883.78;;;18.06;38.91
8523;BME280;4299;42.202;24.736;2023-02-19T09:01:08;99881.69;;;18.21;38.87
8523;BME280;4299;42.202;24.736;2023-02-19T09:03:35;99876.94;;;18.24;38.86
8523;BME280;4299;42.202;24.736;2023-02-19T09:06:02;99876.28;;;18.43;38.61
8523;BME280;4299;42.202;24.736;2023-02-19T09:08:30;99881.28;;;18.37;38.68
8523;BME280;4299;42.202;24.736;2023-02-19T09:10:58;99883.28;;;18.23;38.48
8523;BME280;4299;42.202;24.736;2023-02-19T09:13:24;99876.44;;;18.31;38.93
8523;BME280;4299;42.202;24.736;2023-02-19T09:15:51;99874.31;;;18.45;38.75
8523;BME280;4299;42.202;24.736;2023-02-19T09:18:18;99867.09;;;18.57;38.16
8523;BME280;4299;42.202;24.736;2023-02-19T09:20:44;99878.09;;;18.54;37.99
8523;BME280;4299;42.202;24.736;2023-02-19T09:23:11;99872.72;;;18.54;37.80
8523;BME280;4299;42.202;24.736;2023-02-19T09:25:39;99861.72;;;18.57;38.29
8523;BME280;4299;42.202;24.736;2023-02-19T09:28:06;99855.38;;;18.58;38.05
8523;BME280;4299;42.202;24.736;2023-02-19T09:30:32;99862.44;;;18.70;37.91
8523;BME280;4299;42.202;24.736;2023-02-19T09:32:59;99854.31;;;18.81;37.78
8523;BME280;4299;42.202;24.736;2023-02-19T09:35:26;99860.34;;;18.74;37.98
8523;BME280;4299;42.202;24.736;2023-02-19T09:37:52;99843.31;;;18.84;37.47
8523;BME280;4299;42.202;24.736;2023-02-19T09:40:19;99841.34;;;18.86;37.95
8523;BME280;4299;42.202;24.736;2023-02-19T09:42:49;99847.44;;;19.09;37.67
8523;BME280;4299;42.202;24.736;2023-02-19T09:45:21;99860.22;;;19.17;37.55
8523;BME280;4299;42.202;24.736;2023-02-19T09:47:52;99842.94;;;19.10;37.26
8523;BME280;4299;42.202;24.736;2023-02-19T09:50:23;99842.16;;;19.19;37.38
8523;BME280;4299;42.202;24.736;2023-02-19T09:52:54;99836.47;;;19.22;36.59
8523;BME280;4299;42.202;24.736;2023-02-19T09:55:28;99821.81;;;19.26;37.45
8523;BME280;4299;42.202;24.736;2023-02-19T09:57:58;99824.09;;;19.30;37.39
8523;BME280;4299;42.202;24.736;2023-02-19T10:00:26;99821.59;;;19.38;36.59
8523;BME280;4299;42.202;24.736;2023-02-19T10:02:59;99807.78;;;19.43;37.02
8523;BME280;4299;42.202;24.736;2023-02-19T10:05:28;99808.28;;;19.37;36.85
8523;BME280;4299;42.202;24.736;2023-02-19T10:07:56;99817.31;;;19.36;37.14
8523;BME280;4299;42.202;24.736;2023-02-19T10:10:26;99815.09;;;19.41;36.92
8523;BME280;4299;42.202;24.736;2023-02-19T10:13:01;99803.84;;;19.47;36.94
8523;BME280;4299;42.202;24.736;2023-02-19T10:15:38;99808.69;;;19.53;37.00
8523;BME280;4299;42.202;24.736;2023-02-19T10:18:07;99787.16;;;19.53;36.80
8523;BME280;4299;42.202;24.736;2023-02-19T10:20:34;99786.91;;;19.56;36.79
8523;BME280;4299;42.202;24.736;2023-02-19T10:23:03;99791.19;;;19.68;36.25
8523;BME280;4299;42.202;24.736;2023-02-19T10:25:31;99780.47;;;19.88;36.33
8523;BME280;4299;42.202;24.736;2023-02-19T10:28:01;99799.47;;;19.86;35.88
8523;BME280;4299;42.202;24.736;2023-02-19T10:30:29;99777.09;;;19.86;36.13
8523;BME280;4299;42.202;24.736;2023-02-19T10:33:00;99769.19;;;20.03;35.97
8523;BME280;4299;42.202;24.736;2023-02-19T10:35:28;99761.56;;;20.08;35.52
8523;BME280;4299;42.202;24.736;2023-02-19T10:37:55;99767.25;;;20.34;35.69
8523;BME280;4299;42.202;24.736;2023-02-19T10:40:24;99757.91;;;20.38;34.93
8523;BME280;4299;42.202;24.736;2023-02-19T10:42:55;99737.06;;;20.50;34.61
8523;BME280;4299;42.202;24.736;2023-02-19T10:45:29;99738.91;;;20.49;35.27
8523;BME280;4299;42.202;24.736;2023-02-19T10:47:58;99733.81;;;20.46;35.48
8523;BME280;4299;42.202;24.736;2023-02-19T10:50:29;99732.69;;;20.49;34.76
8523;BME280;4299;42.202;24.736;2023-02-19T10:52:58;99723.03;;;20.46;34.85
8523;BME280;4299;42.202;24.736;2023-02-19T10:55:28;99710.25;;;20.68;34.66
8523;BME280;4299;42.202;24.736;2023-02-19T10:57:56;99713.09;;;20.56;34.92
8523;BME280;4299;42.202;24.736;2023-02-19T11:00:26;99709.69;;;20.74;35.04
8523;BME280;4299;42.202;24.736;2023-02-19T11:03:13;99701.75;;;20.63;34.61
8523;BME280;4299;42.202;24.736;2023-02-19T11:05:49;99704.84;;;20.68;34.92
8523;BME280;4299;42.202;24.736;2023-02-19T11:08:20;99698.31;;;20.80;34.69
8523;BME280;4299;42.202;24.736;2023-02-19T11:10:48;99710.47;;;20.93;34.15
8523;BME280;4299;42.202;24.736;2023-02-19T11:13:19;99704.63;;;20.98;34.22
8523;BME280;4299;42.202;24.736;2023-02-19T11:15:52;99695.09;;;21.23;34.00
8523;BME280;4299;42.202;24.736;2023-02-19T11:18:21;99684.91;;;21.07;33.94
8523;BME280;4299;42.202;24.736;2023-02-19T11:20:51;99672.72;;;21.03;34.09
8523;BME280;4299;42.202;24.736;2023-02-19T11:23:23;99681.34;;;21.16;34.12
8523;BME280;4299;42.202;24.736;2023-02-19T11:25:51;99665.38;;;21.32;33.96
8523;BME280;4299;42.202;24.736;2023-02-19T11:28:29;99684.34;;;21.68;33.82
8523;BME280;4299;42.202;24.736;2023-02-19T11:31:13;99682.34;;;21.88;31.86
8523;BME280;4299;42.202;24.736;2023-02-19T11:33:44;99664.59;;;21.85;32.48
8523;BME280;4299;42.202;24.736;2023-02-19T11:38:58;99657.69;;;22.00;32.85
8523;BME280;4299;42.202;24.736;2023-02-19T11:41:40;99651.97;;;21.68;32.89
8523;BME280;4299;42.202;24.736;2023-02-19T11:44:11;99647.47;;;21.59;33.45
8523;BME280;4299;42.202;24.736;2023-02-19T11:46:45;99646.38;;;21.52;33.07
8523;BME280;4299;42.202;24.736;2023-02-19T11:49:17;99638.47;;;21.68;33.03
8523;BME280;4299;42.202;24.736;2023-02-19T11:51:57;99641.00;;;21.52;32.89
8523;BME280;4299;42.202;24.736;2023-02-19T11:54:37;99633.75;;;21.70;33.17
8523;BME280;4299;42.202;24.736;2023-02-19T11:57:13;99632.75;;;21.53;32.98
8523;BME280;4299;42.202;24.736;2023-02-19T11:59:47;99625.09;;;21.49;33.24
8523;BME280;4299;42.202;24.736;2023-02-19T12:02:41;99623.00;;;21.43;33.05
8523;BME280;4299;42.202;24.736;2023-02-19T12:05:33;99612.06;;;21.44;32.66
8523;BME280;4299;42.202;24.736;2023-02-19T12:11:26;99611.41;;;21.60;32.95
8523;BME280;4299;42.202;24.736;2023-02-19T12:14:22;99607.75;;;21.51;32.77
8523;BME280;4299;42.202;24.736;2023-02-19T12:16:57;99611.22;;;21.44;32.90
8523;BME280;4299;42.202;24.736;2023-02-19T12:19:45;99608.31;;;21.72;32.91
8523;BME280;4299;42.202;24.736;2023-02-19T12:22:26;99601.84;;;21.83;32.71
8523;BME280;4299;42.202;24.736;2023-02-19T12:25:21;99598.97;;;21.85;32.04
8523;BME280;4299;42.202;24.736;2023-02-19T12:28:00;99597.91;;;21.77;32.20
8523;BME280;4299;42.202;24.736;2023-02-19T12:30:41;99589.19;;;21.66;32.50
8523;BME280;4299;42.202;24.736;2023-02-19T12:36:42;99570.84;;;21.52;32.40
8523;BME280;4299;42.202;24.736;2023-02-19T12:39:17;99562.97;;;21.41;32.52
8523;BME280;4299;42.202;24.736;2023-02-19T12:41:54;99564.38;;;21.45;32.41
8523;BME280;4299;42.202;24.736;2023-02-19T12:44:35;99551.19;;;21.42;32.11
8523;BME280;4299;42.202;24.736;2023-02-19T12:47:04;99549.66;;;21.39;32.37
8523;BME280;4299;42.202;24.736;2023-02-19T12:49:36;99547.56;;;21.51;32.36
8523;BME280;4299;42.202;24.736;2023-02-19T12:52:09;99543.25;;;21.58;32.30
8523;BME280;4299;42.202;24.736;2023-02-19T12:54:41;99542.84;;;21.70;32.13
8523;BME280;4299;42.202;24.736;2023-02-19T12:57:11;99530.41;;;21.69;32.41
8523;BME280;4299;42.202;24.736;2023-02-19T12:59:44;99531.91;;;21.72;32.10
8523;BME280;4299;42.202;24.736;2023-02-19T13:02:16;99532.91;;;21.71;31.88
8523;BME280;4299;42.202;24.736;2023-02-19T13:04:49;99517.78;;;21.78;31.81
8523;BME280;4299;42.202;24.736;2023-02-19T13:07:24;99514.44;;;21.76;31.75
8523;BME280;4299;42.202;24.736;2023-02-19T13:09:56;99505.06;;;21.70;32.24
8523;BME280;4299;42.202;24.736;2023-02-19T13:12:28;99507.47;;;21.91;32.10
8523;BME280;4299;42.202;24.736;2023-02-19T13:14:58;99510.22;;;21.99;31.91
8523;BME280;4299;42.202;24.736;2023-02-19T13:17:27;99500.47;;;22.06;31.75
8523;BME280;4299;42.202;24.736;2023-02-19T13:19:59;99500.81;;;22.03;31.37
8523;BME280;4299;42.202;24.736;2023-02-19T13:22:30;99489.22;;;21.93;31.39
8523;BME280;4299;42.202;24.736;2023-02-19T13:25:17;99480.78;;;21.88;30.90
8523;BME280;4299;42.202;24.736;2023-02-19T13:27:48;99483.91;;;22.01;31.00
8523;BME280;4299;42.202;24.736;2023-02-19T13:30:21;99478.94;;;22.14;30.87
8523;BME280;4299;42.202;24.736;2023-02-19T13:32:52;99473.94;;;22.20;30.49
8523;BME280;4299;42.202;24.736;2023-02-19T13:35:23;99463.22;;;22.10;30.66
8523;BME280;4299;42.202;24.736;2023-02-19T13:37:52;99465.97;;;22.18;30.94
8523;BME280;4299;42.202;24.736;2023-02-19T13:40:23;99457.38;;;22.23;30.57